Latest Weather Observations for Oakey

IDQ60901

Issued at 8:15 pm EST Friday 24 October 2014 (issued every 10 minutes, with the page automatically refreshed every 10 minutes)

About weather observations | Map of Brisbane area stations | Latest observations for Brisbane area | Other Formats
Station Details ID: 041359 Name: OAKEY AERO Lat: -27.40 Lon: 151.74 Height: 405.69 m
Data from the previous 72 hours. | See also: Recent months at Oakey
Date/Time
EST
Tmp

°C
App
Tmp
°C
Dew
Point
°C
Rel
Hum
%
Delta-T

°C
Wind Press
QNH
hPa
Press
MSL
hPa
Rain
since
9 am
mm
Dir
 
Spd
km/h
Gust
km/h
Spd
kts
Gust
kts
24/08:00pm 22.5 18.5 13.0 55 5.5 ENE 26 33 14 18 1021.2 - 0.0
24/07:30pm 23.4 18.6 13.0 52 6.1 NE 30 37 16 20 1020.7 - 0.0
24/07:00pm 24.5 20.0 12.5 47 7.0 NE 28 35 15 19 1020.2 - 0.0
24/06:30pm 26.1 21.6 8.6 33 9.7 NE 22 28 12 15 1019.4 - 0.0
24/06:00pm 27.2 22.2 8.1 30 10.5 NE 24 30 13 16 1019.0 1017.7 0.0
24/05:30pm 28.6 24.5 7.8 27 11.5 NE 19 24 10 13 1018.6 - 0.0
24/05:00pm 29.7 27.8 7.6 25 12.2 NNW 7 13 4 7 1018.1 - 0.0
24/04:30pm 29.6 26.6 7.5 25 12.2 NE 13 24 7 13 1017.9 - 0.0
24/04:00pm 30.0 27.6 7.2 24 12.5 ENE 9 17 5 9 1018.0 - 0.0
24/03:30pm 30.6 29.6 8.9 26 12.3 NNW 4 13 2 7 1018.1 - 0.0
24/03:00pm 29.9 28.0 8.9 27 11.8 ENE 9 20 5 11 1018.3 1017.0 0.0
24/02:30pm 29.5 27.2 9.1 28 11.5 ESE 11 20 6 11 1018.6 - 0.0
24/02:00pm 29.5 27.8 8.5 27 11.8 S 7 19 4 10 1019.0 - 0.0
24/01:30pm 30.0 28.1 9.0 27 11.9 NNW 9 13 5 7 1019.4 - 0.0
24/01:00pm 29.1 27.3 9.3 29 11.2 NE 9 19 5 10 1019.9 - 0.0
24/12:30pm 28.3 26.0 9.1 30 10.8 SSW 11 17 6 9 1020.6 - 0.0
24/12:00pm 28.7 26.3 9.9 31 10.7 W 13 20 7 11 1021.2 1019.9 0.0
24/11:30am 26.8 24.4 8.7 32 10.0 WSW 11 17 6 9 1021.6 - 0.0
24/11:00am 26.7 26.0 10.0 35 9.5 S 4 9 2 5 1022.0 - 0.0
24/10:30am 25.2 24.1 10.6 40 8.3 SE 7 13 4 7 1022.5 - 0.0
24/10:00am 24.3 22.9 10.9 43 7.6 NNW 9 13 5 7 1022.9 - 0.0
24/09:30am 23.7 22.4 11.4 46 7.0 NE 9 17 5 9 1023.2 - 0.0
24/09:00am 22.1 21.2 11.5 51 6.0 N 7 17 4 9 1023.6 1022.3 0.0
24/08:30am 21.2 19.6 11.5 54 5.5 NE 11 19 6 10 1023.6 - 0.0
24/08:00am 19.9 18.6 11.4 58 4.8 N 9 19 5 10 1023.7 - 0.0
24/07:30am 18.5 16.8 11.1 62 4.1 NE 11 17 6 9 1023.6 - 0.0
24/07:00am 17.6 15.5 11.2 66 3.5 NE 13 17 7 9 1023.2 - 0.0
24/06:30am 16.8 14.1 11.7 72 2.8 NE 17 20 9 11 1022.8 - 0.0
24/06:00am 15.5 13.3 12.1 80 1.9 ENE 15 19 8 10 1022.4 1021.1 0.0
24/05:30am 13.6 11.5 11.3 86 1.2 E 13 13 7 7 1022.0 - 0.0
24/05:00am 13.0 10.5 11.1 88 1.0 E 15 19 8 10 1021.6 - 0.0
24/04:30am 12.6 10.4 10.7 88 1.0 ESE 13 15 7 8 1021.6 - 0.0
24/04:00am 13.8 12.1 11.3 85 1.4 NE 11 11 6 6 1021.0 - 0.0
24/03:30am 13.8 12.1 11.3 85 1.4 ENE 11 13 6 7 1021.0 - 0.0
24/03:00am 14.3 12.7 11.6 84 1.5 ENE 11 13 6 7 1020.7 1019.5 0.0
24/02:30am 15.2 14.1 12.0 81 1.8 NE 9 13 5 7 1020.9 - 0.0
24/02:00am 16.0 14.3 12.4 79 2.0 ENE 13 15 7 8 1020.9 - 0.0
24/01:30am 16.5 14.1 12.5 77 2.3 NE 17 19 9 10 1020.7 - 0.0
24/01:00am 16.9 15.2 12.4 75 2.5 NE 13 17 7 9 1021.2 - 0.0
24/12:30am 17.1 15.0 12.4 74 2.6 ENE 15 19 8 10 1021.3 - 0.0
24/12:00am 17.2 15.1 11.2 68 3.3 NNE 13 17 7 9 1021.2 1019.9 0.0
 
Date/Time
EST
Tmp

°C
App
Tmp
°C
Dew
Point
°C
Rel
Hum
%
Delta-T

°C
Wind Press
QNH
hPa
Press
MSL
hPa
Rain
since
9 am
mm
Dir
 
Spd
km/h
Gust
km/h
Spd
kts
Gust
kts
23/11:30pm 18.1 15.8 11.9 67 3.5 NNE 15 17 8 9 1021.1 - 0.0
23/11:00pm 18.1 16.7 12.3 69 3.3 NE 11 13 6 7 1022.0 - 0.0
23/10:30pm 18.8 17.7 11.9 64 3.9 NE 9 13 5 7 1022.2 - 0.0
23/10:00pm 19.7 17.9 12.2 62 4.3 SE 13 17 7 9 1022.1 - 0.0
23/09:30pm 20.3 17.3 12.0 59 4.7 SSE 19 26 10 14 1022.1 - 0.0
23/09:00pm 21.0 17.9 12.2 57 5.0 ENE 20 28 11 15 1021.5 1020.2 0.0
23/08:30pm 21.5 17.6 10.9 51 5.9 ENE 22 30 12 16 1020.9 - 0.0
23/08:00pm 22.4 18.9 10.9 48 6.5 E 20 30 11 16 1020.3 - 0.0
23/07:30pm 22.9 19.3 10.0 44 7.2 E 19 20 10 11 1020.0 - 0.0
23/07:00pm 23.4 19.1 10.8 45 7.1 NE 24 30 13 16 1019.5 - 0.0
23/06:30pm 24.3 17.9 8.7 37 8.5 ESE 32 41 17 22 1019.2 - 0.0
23/06:22pm 26.4 20.4 6.9 29 10.5 E 28 35 15 19 1018.9 - 0.0
23/06:00pm 27.3 24.7 6.1 26 11.3 SSE 9 13 5 7 1017.9 1016.6 0.0
23/05:30pm 29.1 27.4 5.9 23 12.4 NE 4 9 2 5 1017.6 - 0.0
23/05:00pm 28.9 26.0 6.3 24 12.2 WNW 11 13 6 7 1017.3 - 0.0
23/04:30pm 29.1 27.0 6.5 24 12.2 E 7 11 4 6 1017.1 - 0.0
23/04:00pm 29.1 26.7 7.1 25 12.0 SSW 9 13 5 7 1017.2 - 0.0
23/03:30pm 29.2 26.3 6.6 24 12.2 WSW 11 15 6 8 1017.1 - 0.0
23/03:00pm 28.7 25.1 6.7 25 11.9 S 15 22 8 12 1017.3 1016.0 0.0
23/02:30pm 29.2 25.9 6.6 24 12.2 S 13 26 7 14 1017.6 - 0.0
23/02:00pm 28.4 25.8 7.6 27 11.4 E 11 19 6 10 1018.1 - 0.0
23/01:30pm 28.2 26.2 8.5 29 11.0 NE 9 17 5 9 1018.7 - 0.0
23/01:00pm 28.1 26.7 9.4 31 10.6 SSW 7 13 4 7 1019.3 - 0.0
23/12:30pm 26.7 24.3 8.6 32 10.0 WNW 11 20 6 11 1020.0 - 0.0
23/12:00pm 26.2 24.7 9.1 34 9.5 NNW 7 17 4 9 1020.7 1019.5 0.0
23/11:30am 26.1 24.3 9.4 35 9.3 NE 9 13 5 7 1021.3 - 0.0
23/11:00am 24.0 21.6 8.8 38 8.3 S 11 19 6 10 1021.8 - 0.0
23/10:30am 23.1 20.6 8.4 39 8.0 W 11 19 6 10 1022.3 - 0.0
23/10:00am 22.3 20.4 9.1 43 7.2 E 9 17 5 9 1022.6 - 0.0
23/09:30am 21.4 19.4 8.7 44 6.8 ENE 9 15 5 8 1023.1 - 0.0
23/09:00am 20.4 18.2 9.3 49 6.0 NE 11 17 6 9 1023.2 1022.0 0.0
23/08:30am 19.5 17.4 9.7 53 5.3 NNE 11 20 6 11 1023.7 - 0.0
23/08:24am 19.0 16.9 9.8 55 5.0 NE 11 20 6 11 1023.7 - 0.0
23/08:00am 18.5 16.2 10.6 60 4.3 NE 13 19 7 10 1023.8 - 0.0
23/07:30am 17.0 13.8 10.1 64 3.7 NE 17 22 9 12 1023.8 - 0.0
23/07:00am 16.2 14.2 11.4 73 2.6 ENE 13 17 7 9 1023.5 - 0.0
23/06:30am 14.5 12.4 11.1 80 1.8 ENE 13 17 7 9 1023.1 - 0.0
23/06:00am 12.1 10.5 10.2 88 1.0 SE 9 9 5 5 1022.9 1021.7 0.0
23/05:30am 10.8 8.7 9.6 92 0.6 ENE 11 13 6 7 1022.4 - 0.0
23/05:00am 10.6 8.4 9.4 92 0.6 ENE 11 13 6 7 1022.0 - 0.0
23/04:30am 10.2 8.2 8.6 90 0.8 ENE 9 13 5 7 1022.0 - 0.0
23/04:00am 10.8 8.6 9.2 90 0.8 ENE 11 11 6 6 1022.1 - 0.0
23/03:30am 10.4 8.0 8.7 89 0.9 ENE 11 13 6 7 1022.1 - 0.0
23/03:00am 10.9 8.1 8.7 86 1.1 ENE 13 13 7 7 1022.2 1020.9 0.0
23/02:30am 11.8 10.4 9.5 86 1.2 ENE 7 9 4 5 1022.3 - 0.0
23/02:00am 12.2 10.1 9.8 85 1.2 ENE 11 13 6 7 1022.3 - 0.0
23/01:30am 13.0 10.3 10.4 84 1.4 ENE 15 19 8 10 1022.4 - 0.0
23/01:00am 13.1 10.4 10.3 83 1.5 ENE 15 17 8 9 1022.5 - 0.0
23/12:30am 13.8 10.4 10.6 81 1.7 ENE 19 22 10 12 1022.9 - 0.0
23/12:00am 14.1 11.1 10.7 80 1.8 ENE 17 20 9 11 1023.2 1022.0 0.0
 
Date/Time
EST
Tmp

°C
App
Tmp
°C
Dew
Point
°C
Rel
Hum
%
Delta-T

°C
Wind Press
QNH
hPa
Press
MSL
hPa
Rain
since
9 am
mm
Dir
 
Spd
km/h
Gust
km/h
Spd
kts
Gust
kts
22/11:30pm 14.3 10.7 10.5 78 2.0 ENE 20 28 11 15 1023.3 - 0.0
22/11:00pm 14.6 11.2 10.4 76 2.2 ENE 19 26 10 14 1023.5 - 0.0
22/10:30pm 14.8 11.2 10.4 75 2.4 ENE 20 24 11 13 1023.5 - 0.0
22/10:00pm 15.4 11.8 10.4 72 2.7 ENE 20 28 11 15 1023.6 - 0.0
22/09:30pm 15.8 12.3 10.3 70 3.0 ENE 19 24 10 13 1023.8 - 0.0
22/09:00pm 16.4 12.4 10.5 68 3.2 ENE 22 28 12 15 1023.6 1022.3 0.0
22/08:30pm 17.0 12.1 10.1 64 3.7 ENE 26 35 14 19 1023.1 - 0.0
22/08:00pm 17.8 13.3 10.2 61 4.1 ENE 24 33 13 18 1022.8 - 0.0
22/07:30pm 18.6 13.3 9.9 57 4.7 ENE 28 35 15 19 1022.6 - 0.0
22/07:00pm 19.8 14.4 9.4 51 5.6 ENE 28 33 15 18 1022.2 - 0.0
22/06:30pm 20.6 16.3 6.9 41 7.1 ENE 19 24 10 13 1022.0 - 0.0
22/06:00pm 22.1 16.7 6.3 36 8.1 E 24 30 13 16 1021.8 1020.5 0.0
22/05:30pm 23.3 18.3 6.6 34 8.8 ENE 22 28 12 15 1021.7 - 0.0
22/05:00pm 24.1 19.6 6.8 33 9.1 ENE 20 30 11 16 1021.6 - 0.0
22/04:30pm 24.7 20.4 6.9 32 9.5 E 19 28 10 15 1021.5 - 0.0
22/04:00pm 25.2 19.9 6.9 31 9.8 E 24 30 13 16 1021.4 - 0.0
22/03:30pm 25.5 20.8 7.6 32 9.7 E 22 30 12 16 1021.4 - 0.0
22/03:00pm 24.9 20.7 7.5 33 9.3 E 19 30 10 16 1021.4 1020.1 0.0
22/02:30pm 24.7 21.2 7.4 33 9.3 E 15 26 8 14 1021.5 - 0.0
22/02:00pm 25.0 21.3 8.1 34 9.2 ESE 17 26 9 14 1021.9 - 0.0
22/01:30pm 24.3 19.7 8.3 36 8.7 SSE 22 30 12 16 1022.4 - 0.0
22/01:00pm 24.2 21.2 9.4 39 8.2 SE 15 30 8 16 1022.9 - 0.0
22/12:30pm 24.3 20.5 9.1 38 8.4 SE 19 32 10 17 1023.2 - 0.0
22/12:00pm 23.5 19.0 8.4 38 8.2 SSE 22 32 12 17 1024.0 1022.7 0.0
22/11:30am 22.7 18.4 8.0 39 7.9 E 20 28 11 15 1024.4 - 0.0
22/11:00am 22.9 17.7 9.0 41 7.6 ESE 26 33 14 18 1024.9 - 0.0
22/10:30am 22.5 17.0 9.3 43 7.2 ESE 28 33 15 18 1025.2 - 0.0
22/10:00am 21.3 16.5 8.9 45 6.7 ESE 24 32 13 17 1025.6 - 0.0
22/09:30am 20.4 14.9 9.0 48 6.1 ESE 28 37 15 20 1025.9 - 0.0
22/09:00am 19.9 14.6 9.8 52 5.5 ESE 28 33 15 18 1026.2 1024.9 0.0
22/08:30am 19.3 13.2 9.8 54 5.2 ENE 32 41 17 22 1026.3 - 0.0
22/08:00am 18.6 13.0 10.2 58 4.6 ENE 30 41 16 22 1026.2 - 0.0
22/07:30am 18.2 12.8 10.8 62 4.1 E 30 35 16 19 1025.9 - 0.0
22/07:00am 16.5 11.3 10.1 66 3.4 E 28 35 15 19 1025.7 - 0.0
22/06:30am 15.4 11.3 10.2 71 2.8 E 22 28 12 15 1025.6 - 0.0
22/06:00am 14.3 11.5 10.1 76 2.2 E 15 20 8 11 1025.5 1024.3 0.0
22/05:30am 12.1 9.9 9.5 84 1.3 E 11 17 6 9 1025.3 - 0.0
22/05:00am 11.7 9.7 8.6 81 1.6 E 9 11 5 6 1025.2 - 0.0
22/04:30am 11.9 9.9 8.7 81 1.6 ESE 9 13 5 7 1025.0 - 0.0
22/04:00am 12.1 10.1 8.8 80 1.7 ENE 9 11 5 6 1025.1 - 0.0
22/03:30am 12.7 10.1 9.2 79 1.8 E 13 19 7 10 1024.9 - 0.0
22/03:00am 13.0 9.6 9.3 78 1.9 E 17 22 9 12 1024.8 1023.6 0.0
22/02:30am 13.2 9.8 9.3 77 2.0 E 17 20 9 11 1025.2 - 0.0
22/02:00am 13.2 10.6 9.3 77 2.0 E 13 17 7 9 1025.4 - 0.0
22/01:30am 13.6 10.3 9.5 76 2.1 ENE 17 20 9 11 1025.6 - 0.0
22/01:00am 14.0 10.1 9.4 74 2.4 ENE 20 24 11 13 1026.1 - 0.0
22/12:30am 14.5 10.8 9.5 72 2.6 ENE 19 24 10 13 1026.7 - 0.0
22/12:00am 14.8 11.2 9.8 72 2.6 E 19 28 10 15 1027.3 1026.1 0.0
 
Date/Time
EST
Tmp

°C
App
Tmp
°C
Dew
Point
°C
Rel
Hum
%
Delta-T

°C
Wind Press
QNH
hPa
Press
MSL
hPa
Rain
since
9 am
mm
Dir
 
Spd
km/h
Gust
km/h
Spd
kts
Gust
kts
21/11:30pm 15.0 11.2 9.8 71 2.8 E 20 28 11 15 1027.6 - 0.0
21/11:00pm 15.3 11.6 10.1 71 2.8 E 20 30 11 16 1027.6 - 0.0
21/10:30pm 15.9 11.4 10.0 68 3.2 E 24 35 13 19 1027.5 - 0.0
21/10:00pm 16.5 11.3 10.1 66 3.4 E 28 37 15 20 1027.5 - 0.0
21/09:30pm 17.0 11.8 10.4 65 3.6 E 28 37 15 20 1027.4 - 0.0
21/09:00pm 17.2 12.0 10.1 63 3.8 E 28 37 15 20 1027.3 1026.1 0.0
21/08:30pm 17.8 12.6 10.2 61 4.1 E 28 37 15 20 1026.9 - 0.0

Latest Capital City Observations: Canberra | Sydney | Melbourne | Brisbane | Adelaide | Perth | Hobart | Darwin

Other Formats:

Comma delimited format used in spreadsheet applications
http://www.bom.gov.au/fwo/IDQ60901/IDQ60901.94552.axf

JavaScript Object Notation format (JSON) in row-major order
http://www.bom.gov.au/fwo/IDQ60901/IDQ60901.94552.json